createdAt,value
2022-11-17T00:02:12.330Z,8.81
2022-11-17T00:04:40.075Z,8.79
2022-11-17T00:07:07.912Z,8.77
2022-11-17T00:09:35.663Z,8.74
2022-11-17T00:12:23.208Z,8.74
2022-11-17T00:14:52.343Z,8.73
2022-11-17T00:17:20.171Z,8.73
2022-11-17T00:20:05.662Z,8.73
2022-11-17T00:22:33.443Z,8.74
2022-11-17T00:25:01.241Z,8.75
2022-11-17T00:27:29.744Z,8.77
2022-11-17T00:29:58.809Z,8.76
2022-11-17T00:32:44.216Z,8.75
2022-11-17T00:35:11.953Z,8.80
2022-11-17T00:38:03.081Z,8.78
2022-11-17T00:40:30.871Z,8.76
2022-11-17T00:42:58.604Z,8.76
2022-11-17T00:45:28.142Z,8.76
2022-11-17T00:47:55.879Z,8.75
2022-11-17T00:50:24.158Z,8.76
2022-11-17T00:52:51.926Z,8.77
2022-11-17T00:55:19.841Z,8.77
2022-11-17T00:57:47.568Z,8.77
2022-11-17T01:00:15.965Z,8.77
2022-11-17T01:02:45.040Z,8.77
2022-11-17T01:05:12.776Z,8.76
2022-11-17T01:07:40.573Z,8.76
2022-11-17T01:10:09.153Z,8.77
2022-11-17T01:12:36.892Z,8.76
2022-11-17T01:15:05.000Z,8.77
2022-11-17T01:17:32.852Z,8.77
2022-11-17T01:20:01.928Z,8.78
2022-11-17T01:22:29.685Z,8.78
2022-11-17T01:24:57.455Z,8.79
2022-11-17T01:27:25.184Z,8.79
2022-11-17T01:29:52.925Z,8.79
2022-11-17T01:32:20.655Z,8.79
2022-11-17T01:34:48.671Z,8.81
2022-11-17T01:37:20.668Z,8.82
2022-11-17T01:39:48.929Z,8.83
2022-11-17T01:42:18.935Z,8.85
2022-11-17T01:44:59.017Z,8.88
2022-11-17T01:47:35.513Z,8.89
2022-11-17T01:50:07.848Z,8.91
2022-11-17T01:52:39.099Z,8.94
2022-11-17T01:55:09.742Z,8.96
2022-11-17T01:57:44.277Z,8.97
2022-11-17T02:00:13.023Z,8.96
2022-11-17T02:02:42.835Z,8.96
2022-11-17T02:05:20.293Z,8.97
2022-11-17T02:07:53.127Z,9.00
2022-11-17T02:10:21.103Z,9.02
2022-11-17T02:12:49.757Z,9.02
2022-11-17T02:15:17.521Z,9.06
2022-11-17T02:17:45.682Z,9.09
2022-11-17T02:20:16.948Z,9.12
2022-11-17T02:23:16.924Z,9.11
2022-11-17T02:26:07.384Z,9.09
2022-11-17T02:28:38.739Z,9.11
2022-11-17T02:31:17.260Z,9.13
2022-11-17T02:33:54.887Z,9.15
2022-11-17T02:36:31.995Z,9.14
2022-11-17T02:39:02.766Z,9.14
2022-11-17T02:41:36.045Z,9.16
2022-11-17T02:44:12.934Z,9.15
2022-11-17T02:46:46.515Z,9.15
2022-11-17T02:49:20.859Z,9.15
2022-11-17T02:51:52.668Z,9.14
2022-11-17T02:54:22.388Z,9.15
2022-11-17T02:56:50.145Z,9.18
2022-11-17T02:59:24.389Z,9.18
2022-11-17T03:02:21.032Z,9.18
2022-11-17T03:05:03.132Z,9.18
2022-11-17T03:07:49.366Z,9.18
2022-11-17T03:10:20.652Z,9.19
2022-11-17T03:12:56.260Z,9.20
2022-11-17T03:15:30.121Z,9.23
2022-11-17T03:18:08.068Z,9.24
2022-11-17T03:20:43.395Z,9.21
2022-11-17T03:23:15.324Z,9.21
2022-11-17T03:25:47.313Z,9.20
2022-11-17T03:28:18.586Z,9.22
2022-11-17T03:30:50.246Z,9.19
2022-11-17T03:33:22.434Z,9.22
2022-11-17T03:35:53.818Z,9.21
2022-11-17T03:38:26.653Z,9.21
2022-11-17T03:40:58.934Z,9.19
2022-11-17T03:43:28.808Z,9.20
2022-11-17T03:46:03.454Z,9.20
2022-11-17T03:48:36.640Z,9.22
2022-11-17T03:51:09.279Z,9.24
2022-11-17T03:53:38.044Z,9.24
2022-11-17T03:56:16.199Z,9.26
2022-11-17T03:58:51.417Z,9.26
2022-11-17T04:01:21.751Z,9.27
2022-11-17T04:03:50.008Z,9.26
2022-11-17T04:06:17.724Z,9.28
2022-11-17T04:08:45.645Z,9.29
2022-11-17T04:11:30.965Z,9.31
2022-11-17T04:14:16.555Z,9.27
2022-11-17T04:16:45.671Z,9.25
2022-11-17T04:19:13.431Z,9.24
2022-11-17T04:21:41.399Z,9.24
2022-11-17T04:24:09.800Z,9.22
2022-11-17T04:26:55.215Z,9.23
2022-11-17T04:29:22.984Z,9.25
2022-11-17T04:31:52.098Z,9.25
2022-11-17T04:34:19.811Z,9.24
2022-11-17T04:36:47.645Z,9.22
2022-11-17T04:39:16.698Z,9.21
2022-11-17T04:42:03.303Z,9.17
2022-11-17T04:44:33.156Z,9.13
2022-11-17T04:47:03.499Z,9.14
2022-11-17T04:49:32.450Z,9.14
2022-11-17T04:52:00.250Z,9.13
2022-11-17T04:54:28.633Z,9.13
2022-11-17T04:56:56.554Z,9.14
2022-11-17T04:59:24.788Z,9.14
2022-11-17T05:01:52.776Z,9.14
2022-11-17T05:04:36.352Z,9.17
2022-11-17T05:07:04.510Z,9.19
2022-11-17T05:09:32.675Z,9.20
2022-11-17T05:12:18.103Z,9.23
2022-11-17T05:14:47.258Z,9.24
2022-11-17T05:17:13.997Z,9.26
2022-11-17T05:19:45.189Z,9.29
2022-11-17T05:22:31.378Z,9.30
2022-11-17T05:24:59.371Z,9.32
2022-11-17T05:27:27.761Z,9.34
2022-11-17T05:29:55.714Z,9.35
2022-11-17T05:32:23.426Z,9.33
2022-11-17T05:34:52.609Z,9.35
2022-11-17T05:37:20.355Z,9.34
2022-11-17T05:39:48.092Z,9.33
2022-11-17T05:42:15.874Z,9.34
2022-11-17T05:44:43.599Z,9.33
2022-11-17T05:47:11.335Z,9.32
2022-11-17T05:49:39.063Z,9.32
2022-11-17T05:52:08.190Z,9.30
2022-11-17T05:54:35.985Z,9.29
2022-11-17T05:57:08.225Z,9.27
2022-11-17T05:59:42.184Z,9.27
2022-11-17T06:02:14.000Z,9.28
2022-11-17T06:04:41.789Z,9.28
2022-11-17T06:07:11.801Z,9.28
2022-11-17T06:09:42.424Z,9.29
2022-11-17T06:12:11.939Z,9.27
2022-11-17T06:14:39.988Z,9.25
2022-11-17T06:17:21.778Z,9.28
2022-11-17T06:19:54.451Z,9.31
2022-11-17T06:22:23.735Z,9.33
2022-11-17T06:24:51.520Z,9.30
2022-11-17T06:27:19.440Z,9.32
2022-11-17T06:29:47.976Z,9.34
2022-11-17T06:32:18.063Z,9.33
2022-11-17T06:34:53.673Z,9.34
2022-11-17T06:37:24.570Z,9.38
2022-11-17T06:39:52.366Z,9.40
2022-11-17T06:42:40.075Z,9.39
2022-11-17T06:45:08.951Z,9.40
2022-11-17T06:47:36.667Z,9.38
2022-11-17T06:50:04.904Z,9.37
2022-11-17T06:52:34.097Z,9.38
2022-11-17T06:55:01.954Z,9.40
2022-11-17T06:57:30.866Z,9.39
2022-11-17T06:59:58.664Z,9.40
2022-11-17T07:02:26.506Z,9.38
2022-11-17T07:04:54.274Z,9.36
2022-11-17T07:07:22.137Z,9.40
2022-11-17T07:09:51.621Z,9.39
2022-11-17T07:12:19.472Z,9.37
2022-11-17T07:14:47.272Z,9.36
2022-11-17T07:17:15.094Z,9.37
2022-11-17T07:19:43.048Z,9.36
2022-11-17T07:22:10.911Z,9.37
2022-11-17T07:24:38.705Z,9.35
2022-11-17T07:27:08.093Z,9.34
2022-11-17T07:29:35.895Z,9.34
2022-11-17T07:32:03.780Z,9.33
2022-11-17T07:34:31.640Z,9.30
2022-11-17T07:36:59.533Z,9.26
2022-11-17T07:39:27.370Z,9.26
2022-11-17T07:41:55.167Z,9.23
2022-11-17T07:44:24.379Z,9.21
2022-11-17T07:46:52.155Z,9.18
2022-11-17T07:49:19.934Z,9.19
2022-11-17T07:51:47.741Z,9.14
2022-11-17T07:54:15.532Z,9.12
2022-11-17T07:56:43.343Z,9.12
2022-11-17T07:59:11.246Z,9.07
2022-11-17T08:01:40.506Z,9.04
2022-11-17T08:04:08.392Z,9.03
2022-11-17T08:06:37.385Z,9.01
2022-11-17T08:09:06.313Z,8.97
2022-11-17T08:11:34.339Z,8.91
2022-11-17T08:14:02.223Z,8.90
2022-11-17T08:16:30.858Z,8.84
2022-11-17T08:19:00.722Z,8.86
2022-11-17T08:21:28.649Z,8.81
2022-11-17T08:23:56.414Z,8.80
2022-11-17T08:26:25.415Z,8.77
2022-11-17T08:28:58.179Z,8.80
2022-11-17T08:31:26.677Z,8.79
2022-11-17T08:33:54.642Z,8.79
2022-11-17T08:36:23.797Z,8.78
2022-11-17T08:38:51.626Z,8.75
2022-11-17T08:41:19.787Z,8.73
2022-11-17T08:43:47.577Z,8.71
2022-11-17T08:46:15.417Z,8.70
2022-11-17T08:48:43.194Z,8.68
2022-11-17T08:51:13.233Z,8.69
2022-11-17T08:53:42.933Z,8.69
2022-11-17T08:56:13.059Z,8.65
2022-11-17T08:58:40.921Z,8.63
2022-11-17T09:01:10.200Z,8.61
2022-11-17T09:03:38.573Z,8.61
2022-11-17T09:06:06.948Z,8.61
2022-11-17T09:08:50.238Z,8.61
2022-11-17T09:11:20.771Z,8.67
2022-11-17T09:13:48.693Z,8.75
2022-11-17T09:16:17.495Z,8.78
2022-11-17T09:18:45.413Z,8.77
2022-11-17T09:21:16.004Z,8.81
2022-11-17T09:23:43.962Z,8.86
2022-11-17T09:26:14.014Z,8.84
2022-11-17T09:28:43.988Z,8.80
2022-11-17T09:31:14.242Z,8.77
2022-11-17T09:33:43.509Z,8.74
2022-11-17T09:36:11.711Z,8.75
2022-11-17T09:38:40.205Z,8.77
2022-11-17T09:41:24.026Z,8.77
2022-11-17T09:44:00.438Z,8.79
2022-11-17T09:46:37.904Z,8.78
2022-11-17T09:49:13.406Z,8.78
2022-11-17T09:51:46.237Z,8.82
2022-11-17T09:54:22.573Z,8.81
2022-11-17T09:56:51.678Z,8.84
2022-11-17T09:59:23.416Z,8.85
2022-11-17T10:01:51.300Z,8.86
2022-11-17T10:04:19.300Z,8.77
2022-11-17T10:06:50.354Z,8.79
2022-11-17T10:09:25.349Z,8.80
2022-11-17T10:11:55.426Z,8.79
2022-11-17T10:14:24.687Z,8.78
2022-11-17T10:16:54.772Z,8.79
2022-11-17T10:19:25.682Z,8.72
2022-11-17T10:21:56.776Z,8.65
2022-11-17T10:24:35.748Z,8.75
2022-11-17T10:27:05.238Z,8.74
2022-11-17T10:29:34.446Z,8.79
2022-11-17T10:32:09.729Z,8.78
2022-11-17T10:34:41.582Z,8.79
2022-11-17T10:37:25.520Z,8.75
2022-11-17T10:40:09.910Z,8.73
2022-11-17T10:42:37.775Z,8.70
2022-11-17T10:45:17.118Z,8.70
2022-11-17T10:47:45.222Z,8.61
2022-11-17T10:50:21.429Z,8.62
2022-11-17T10:52:54.155Z,8.64
2022-11-17T10:55:27.933Z,8.70
2022-11-17T10:58:00.403Z,8.78
2022-11-17T11:00:35.216Z,8.82
2022-11-17T11:03:18.666Z,8.86
2022-11-17T11:06:05.134Z,8.83
2022-11-17T11:08:45.270Z,8.82
2022-11-17T11:11:20.811Z,8.92
2022-11-17T11:13:57.244Z,8.88
2022-11-17T11:16:30.824Z,8.84
2022-11-17T11:18:59.200Z,8.85
2022-11-17T11:21:43.807Z,8.81
2022-11-17T11:24:21.561Z,8.84
2022-11-17T11:27:03.953Z,8.92
2022-11-17T11:29:46.498Z,8.91
2022-11-17T11:32:25.672Z,8.80
2022-11-17T11:35:17.060Z,8.84
2022-11-17T11:37:54.524Z,8.82
2022-11-17T11:40:27.732Z,8.80
2022-11-17T11:42:58.910Z,8.84
2022-11-17T11:45:43.289Z,8.84
2022-11-17T11:48:17.357Z,8.81
2022-11-17T11:50:53.427Z,8.83
2022-11-17T11:53:28.979Z,8.80
2022-11-17T11:56:08.842Z,8.80
2022-11-17T11:58:43.382Z,8.79
2022-11-17T12:01:13.115Z,8.79
2022-11-17T12:03:49.953Z,8.78
2022-11-17T12:06:41.504Z,8.76
2022-11-17T12:09:25.873Z,8.73
2022-11-17T12:12:04.054Z,8.72
2022-11-17T12:14:34.187Z,8.64
2022-11-17T12:17:06.205Z,8.69
2022-11-17T12:19:54.003Z,8.70
2022-11-17T12:22:46.464Z,8.71
2022-11-17T12:25:18.519Z,8.72
2022-11-17T12:27:49.592Z,8.69
2022-11-17T12:30:55.740Z,8.70
2022-11-17T12:33:24.672Z,8.66
2022-11-17T12:36:30.519Z,8.71
2022-11-17T12:38:59.781Z,8.68
2022-11-17T12:42:05.413Z,8.67
2022-11-17T12:44:58.243Z,8.64
2022-11-17T12:47:28.233Z,8.68
2022-11-17T12:50:24.903Z,8.64
2022-11-17T12:53:12.226Z,8.66
2022-11-17T12:55:53.869Z,8.68
2022-11-17T12:58:31.663Z,8.66
2022-11-17T13:01:10.166Z,8.64
2022-11-17T13:03:45.162Z,8.71
2022-11-17T13:09:07.211Z,8.68
2022-11-17T13:11:36.053Z,8.69
2022-11-17T13:14:11.990Z,8.69
2022-11-17T13:16:46.568Z,8.67
2022-11-17T13:19:35.684Z,8.64
2022-11-17T13:22:06.678Z,8.64
2022-11-17T13:24:37.562Z,8.64
2022-11-17T13:27:08.383Z,8.70
2022-11-17T13:29:36.373Z,8.69
2022-11-17T13:32:23.912Z,8.70
2022-11-17T13:34:53.820Z,8.70
2022-11-17T13:37:23.454Z,8.64
2022-11-17T13:40:00.709Z,8.64
2022-11-17T13:42:32.140Z,8.63
2022-11-17T13:45:03.245Z,8.63
2022-11-17T13:47:46.616Z,8.62
2022-11-17T13:50:33.033Z,8.62
2022-11-17T13:53:03.294Z,8.60
2022-11-17T13:55:33.082Z,8.60
2022-11-17T13:58:06.570Z,8.61
2022-11-17T14:00:35.363Z,8.61
2022-11-17T14:03:04.873Z,8.60
2022-11-17T14:05:34.381Z,8.55
2022-11-17T14:08:13.943Z,8.57
2022-11-17T14:10:43.130Z,8.58
2022-11-17T14:13:30.841Z,8.62
2022-11-17T14:16:00.706Z,8.62
2022-11-17T14:18:36.716Z,8.66
2022-11-17T14:21:14.212Z,8.66
2022-11-17T14:23:42.922Z,8.70
2022-11-17T14:26:23.731Z,8.71
2022-11-17T14:28:52.707Z,8.74
2022-11-17T14:31:20.767Z,8.71
2022-11-17T14:33:50.387Z,8.71
2022-11-17T14:36:19.040Z,8.72
2022-11-17T14:38:47.485Z,8.73
2022-11-17T14:41:16.762Z,8.75
2022-11-17T14:43:46.084Z,8.76
2022-11-17T14:46:25.066Z,8.77
2022-11-17T14:48:53.974Z,8.80
2022-11-17T14:51:22.484Z,8.76
2022-11-17T14:53:51.086Z,8.78
2022-11-17T14:56:21.070Z,8.78
2022-11-17T14:58:54.807Z,8.79
2022-11-17T15:01:25.397Z,8.77
2022-11-17T15:03:53.954Z,8.77
2022-11-17T15:06:22.475Z,8.77
2022-11-17T15:08:54.873Z,8.75
2022-11-17T15:11:22.916Z,8.76
2022-11-17T15:13:52.197Z,8.77
2022-11-17T15:16:20.145Z,8.78
2022-11-17T15:18:48.830Z,8.78
2022-11-17T15:21:17.634Z,8.77
2022-11-17T15:23:45.804Z,8.76
2022-11-17T15:26:15.116Z,8.73
2022-11-17T15:28:43.385Z,8.72
2022-11-17T15:31:14.915Z,8.72
2022-11-17T15:33:43.732Z,8.71
2022-11-17T15:36:12.896Z,8.73
2022-11-17T15:38:41.728Z,8.72
2022-11-17T15:41:11.615Z,8.73
2022-11-17T15:43:40.943Z,8.75
2022-11-17T15:46:10.547Z,8.76
2022-11-17T15:48:42.863Z,8.76
2022-11-17T15:51:11.959Z,8.76
2022-11-17T15:53:40.301Z,8.73
2022-11-17T15:56:09.928Z,8.70
2022-11-17T15:58:38.174Z,8.69
2022-11-17T16:01:12.178Z,8.66
2022-11-17T16:03:42.994Z,8.66
2022-11-17T16:06:12.306Z,8.64
2022-11-17T16:08:40.230Z,8.64
2022-11-17T16:11:08.404Z,8.64
2022-11-17T16:13:36.190Z,8.62
2022-11-17T16:16:04.588Z,8.62
2022-11-17T16:18:34.178Z,8.60
2022-11-17T16:21:08.390Z,8.58
2022-11-17T16:23:40.359Z,8.57
2022-11-17T16:26:08.411Z,8.58
2022-11-17T16:28:36.137Z,8.59
2022-11-17T16:31:15.333Z,8.55
2022-11-17T16:33:49.228Z,8.54
2022-11-17T16:36:19.026Z,8.51
2022-11-17T16:39:00.456Z,8.52
2022-11-17T16:41:32.052Z,8.51
2022-11-17T16:44:00.036Z,8.50
2022-11-17T16:46:30.153Z,8.48
2022-11-17T16:49:01.449Z,8.48
2022-11-17T16:51:31.172Z,8.50
2022-11-17T16:54:01.340Z,8.50
2022-11-17T16:56:29.345Z,8.50
2022-11-17T16:58:57.364Z,8.49
2022-11-17T17:01:26.676Z,8.49
2022-11-17T17:03:57.822Z,8.50
2022-11-17T17:06:25.756Z,8.50
2022-11-17T17:08:56.329Z,8.49
2022-11-17T17:11:24.784Z,8.49
2022-11-17T17:13:52.596Z,8.51
2022-11-17T17:16:21.345Z,8.51
2022-11-17T17:18:49.675Z,8.49
2022-11-17T17:21:19.504Z,8.50
2022-11-17T17:23:47.360Z,8.52
2022-11-17T17:26:18.646Z,8.53
2022-11-17T17:28:48.370Z,8.51
2022-11-17T17:31:21.416Z,8.52
2022-11-17T17:33:51.054Z,8.52
2022-11-17T17:36:20.484Z,8.53
2022-11-17T17:38:54.617Z,8.52
2022-11-17T17:41:27.415Z,8.53
2022-11-17T17:43:57.025Z,8.53
2022-11-17T17:46:25.494Z,8.52
2022-11-17T17:48:53.652Z,8.53
2022-11-17T17:51:23.930Z,8.51
2022-11-17T17:53:51.811Z,8.50
2022-11-17T17:56:21.685Z,8.49
2022-11-17T17:58:51.824Z,8.49
2022-11-17T18:01:22.329Z,8.48
2022-11-17T18:03:51.745Z,8.45
2022-11-17T18:06:22.044Z,8.48
2022-11-17T18:08:50.855Z,8.46
2022-11-17T18:11:20.837Z,8.44
2022-11-17T18:13:51.297Z,8.45
2022-11-17T18:16:21.894Z,8.47
2022-11-17T18:18:50.126Z,8.47
2022-11-17T18:21:19.520Z,8.44
2022-11-17T18:23:47.362Z,8.45
2022-11-17T18:26:17.942Z,8.44
2022-11-17T18:28:53.038Z,8.40
2022-11-17T18:31:21.901Z,8.38
2022-11-17T18:33:51.846Z,8.38
2022-11-17T18:36:19.977Z,8.41
2022-11-17T18:38:48.500Z,8.41
2022-11-17T18:41:18.360Z,8.38
2022-11-17T18:43:46.648Z,8.39
2022-11-17T18:46:17.953Z,8.39
2022-11-17T18:48:47.804Z,8.39
2022-11-17T18:51:19.553Z,8.35
2022-11-17T18:53:48.334Z,8.31
2022-11-17T18:56:18.918Z,8.29
2022-11-17T18:58:46.979Z,8.24
2022-11-17T19:01:18.736Z,8.24
2022-11-17T19:03:48.626Z,8.21
2022-11-17T19:06:17.973Z,8.19
2022-11-17T19:08:46.729Z,8.20
2022-11-17T19:11:15.574Z,8.17
2022-11-17T19:13:44.099Z,8.16
2022-11-17T19:16:14.443Z,8.15
2022-11-17T19:18:44.846Z,8.17
2022-11-17T19:21:15.189Z,8.13
2022-11-17T19:23:50.708Z,8.12
2022-11-17T19:26:20.944Z,8.09
2022-11-17T19:28:48.883Z,8.07
2022-11-17T19:31:18.332Z,8.06
2022-11-17T19:33:49.032Z,8.11
2022-11-17T19:36:18.616Z,8.14
2022-11-17T19:38:49.805Z,8.11
2022-11-17T19:41:19.525Z,8.12
2022-11-17T19:43:47.477Z,8.11
2022-11-17T19:46:17.762Z,8.13
2022-11-17T19:48:47.365Z,8.14
2022-11-17T19:51:18.394Z,8.23
2022-11-17T19:53:46.997Z,8.34
2022-11-17T19:56:15.408Z,8.39
2022-11-17T19:58:43.504Z,8.40
2022-11-17T20:01:13.459Z,8.41
2022-11-17T20:03:41.971Z,8.38
2022-11-17T20:06:13.041Z,8.35
2022-11-17T20:08:40.745Z,8.40
2022-11-17T20:11:10.202Z,8.37
2022-11-17T20:13:39.215Z,8.34
2022-11-17T20:16:12.225Z,8.33
2022-11-17T20:18:40.523Z,8.38
2022-11-17T20:21:09.561Z,8.36
2022-11-17T20:23:39.834Z,8.37
2022-11-17T20:26:09.334Z,8.35
2022-11-17T20:28:38.684Z,8.39
2022-11-17T20:31:07.623Z,8.35
2022-11-17T20:33:35.427Z,8.41
2022-11-17T20:36:03.801Z,8.41
2022-11-17T20:38:31.840Z,8.42
2022-11-17T20:41:01.906Z,8.40
2022-11-17T20:43:30.612Z,8.38
2022-11-17T20:45:58.998Z,8.39
2022-11-17T20:48:27.511Z,8.38
2022-11-17T20:50:59.112Z,8.31
2022-11-17T20:53:27.545Z,8.36
2022-11-17T20:55:56.321Z,8.38
2022-11-17T20:58:26.037Z,8.38
2022-11-17T21:00:54.663Z,8.36
2022-11-17T21:03:23.556Z,8.37
2022-11-17T21:05:58.758Z,8.30
2022-11-17T21:08:28.515Z,8.35
2022-11-17T21:10:56.807Z,8.36
2022-11-17T21:13:26.657Z,8.30
2022-11-17T21:16:08.804Z,8.30
2022-11-17T21:18:38.460Z,8.26
2022-11-17T21:21:08.952Z,8.24
2022-11-17T21:23:37.523Z,8.21
2022-11-17T21:26:06.830Z,8.25
2022-11-17T21:28:36.462Z,8.23
2022-11-17T21:31:08.046Z,8.23
2022-11-17T21:33:36.507Z,8.21
2022-11-17T21:36:05.130Z,8.15
2022-11-17T21:38:33.197Z,8.15
2022-11-17T21:41:04.733Z,8.13
2022-11-17T21:43:32.974Z,8.13
2022-11-17T21:46:06.760Z,8.09
2022-11-17T21:48:35.062Z,8.08
2022-11-17T21:51:03.066Z,8.06
2022-11-17T21:53:31.254Z,8.02
2022-11-17T21:56:02.473Z,8.00
2022-11-17T21:58:30.612Z,7.98
2022-11-17T22:00:58.793Z,7.95
2022-11-17T22:03:28.190Z,7.90
2022-11-17T22:06:02.101Z,7.88
2022-11-17T22:08:30.187Z,7.89
2022-11-17T22:10:57.946Z,7.86
2022-11-17T22:13:25.767Z,7.86
2022-11-17T22:15:53.596Z,7.85
2022-11-17T22:18:21.364Z,7.80
2022-11-17T22:20:52.658Z,7.78
2022-11-17T22:23:20.478Z,7.74
2022-11-17T22:25:54.493Z,7.72
2022-11-17T22:28:22.634Z,7.68
2022-11-17T22:30:50.676Z,7.68
2022-11-17T22:33:19.057Z,7.69
2022-11-17T22:35:46.855Z,7.67
2022-11-17T22:38:16.816Z,7.67
2022-11-17T22:40:44.880Z,7.69
2022-11-17T22:43:15.535Z,7.68
2022-11-17T22:45:43.916Z,7.65
2022-11-17T22:48:11.753Z,7.63
2022-11-17T22:50:39.564Z,7.58
2022-11-17T22:53:07.340Z,7.57
2022-11-17T22:55:37.701Z,7.51
2022-11-17T22:58:05.566Z,7.47
2022-11-17T23:00:33.586Z,7.43
2022-11-17T23:03:01.435Z,7.39
2022-11-17T23:05:29.343Z,7.35
2022-11-17T23:07:57.201Z,7.31
2022-11-17T23:10:25.048Z,7.31
2022-11-17T23:12:54.316Z,7.31
2022-11-17T23:15:22.399Z,7.30
2022-11-17T23:17:50.179Z,7.27
2022-11-17T23:20:18.452Z,7.28
2022-11-17T23:22:46.194Z,7.25
2022-11-17T23:25:13.982Z,7.21
2022-11-17T23:27:41.704Z,7.19
2022-11-17T23:30:12.135Z,7.18
2022-11-17T23:32:39.881Z,7.16
2022-11-17T23:35:08.606Z,7.14
2022-11-17T23:37:36.386Z,7.14
2022-11-17T23:40:04.279Z,7.10
2022-11-17T23:42:32.814Z,7.09
2022-11-17T23:45:03.301Z,7.09
2022-11-17T23:47:32.443Z,7.11
2022-11-17T23:50:00.243Z,7.11
2022-11-17T23:52:28.006Z,7.07
2022-11-17T23:54:55.861Z,7.07
2022-11-17T23:57:23.609Z,7.04
2022-11-17T23:59:51.346Z,7.01
